Řízení letového provozu České republiky
Letiste: LKKB Aktualizace: 20.01.2019 11:01:06  UTC
 METAR LKKB 20.01. 11:00 ...
METAR LKKB 201100Z VRB02KT 9000 OVC031 M03/M06 Q1016 NOSIG RMK BLU BLU=
 TAF LKKB 20.01. 05:00 ...
TAF LKKB 200500Z 2006/2106 07004KT 9999 BKN024      BECMG 2020/2022 CAVOK      BECMG 2104/2106 5000 BR=